Time;durP1;ratioP1;P1;durP2;ratioP2;P2;SDS_P1;SDS_P2;PMS_P1;PMS_P2;Temp;Humidity;BMP_temperature;BMP_pressure;BME280_temperature;BME280_humidity;BME280_pressure;Samples;Min_cycle;Max_cycle;Signal;HPM_P1;HPM_P2
2023/03/07 00:00:21;;;;;;;16.83;7.10;;;;;;;;;;5001897;28;20057;-64
2023/03/07 00:02:49;;;;;;;16.27;6.93;;;;;;;;;;5010666;28;20083;-63
2023/03/07 00:05:14;;;;;;;17.10;6.93;;;;;;;;;;5017933;28;20065;-63
2023/03/07 00:07:39;;;;;;;18.00;7.22;;;;;;;;;;5020690;28;20052;-63
2023/03/07 00:10:05;;;;;;;17.48;7.30;;;;;;;;;;5022247;28;20025;-63
2023/03/07 00:12:30;;;;;;;16.30;7.35;;;;;;;;;;5008486;28;20022;-64
2023/03/07 00:14:55;;;;;;;19.27;6.97;;;;;;;;;;5005643;28;20022;-63
2023/03/07 00:17:20;;;;;;;16.80;7.35;;;;;;;;;;5008578;28;20150;-63
2023/03/07 00:19:46;;;;;;;18.02;7.18;;;;;;;;;;5007701;28;20026;-63
2023/03/07 00:22:11;;;;;;;16.58;6.70;;;;;;;;;;5007899;28;20030;-64
2023/03/07 00:24:36;;;;;;;17.03;6.97;;;;;;;;;;5009426;28;20025;-63
2023/03/07 00:27:01;;;;;;;18.47;7.23;;;;;;;;;;5009847;28;20036;-64
2023/03/07 00:29:27;;;;;;;17.57;7.57;;;;;;;;;;5009369;28;20612;-63
2023/03/07 00:31:52;;;;;;;17.42;7.45;;;;;;;;;;5014462;28;20096;-63
2023/03/07 00:34:17;;;;;;;16.30;6.47;;;;;;;;;;5007002;28;20014;-62
2023/03/07 00:36:42;;;;;;;17.63;7.50;;;;;;;;;;5014466;28;20061;-62
2023/03/07 00:39:07;;;;;;;18.13;7.90;;;;;;;;;;5008374;28;20034;-62
2023/03/07 00:41:33;;;;;;;17.10;7.25;;;;;;;;;;5009582;28;20374;-62
2023/03/07 00:43:58;;;;;;;17.73;7.40;;;;;;;;;;5011161;28;20026;-63
2023/03/07 00:46:24;;;;;;;17.50;6.87;;;;;;;;;;5008369;28;20108;-63
2023/03/07 00:48:49;;;;;;;19.58;7.75;;;;;;;;;;5016442;28;20021;-62
2023/03/07 00:51:15;;;;;;;19.33;8.00;;;;;;;;;;5011376;28;20053;-62
2023/03/07 00:53:41;;;;;;;18.05;7.70;;;;;;;;;;5006176;28;20029;-62
2023/03/07 00:56:06;;;;;;;18.77;7.97;;;;;;;;;;5001758;28;20113;-62
2023/03/07 00:58:33;;;;;;;19.30;8.07;;;;;;;;;;5012784;28;20032;-62
2023/03/07 01:00:58;;;;;;;18.05;7.18;;;;;;;;;;5013270;28;20035;-62
2023/03/07 01:03:24;;;;;;;17.03;7.00;;;;;;;;;;5015883;28;20393;-62
2023/03/07 01:05:50;;;;;;;18.65;7.45;;;;;;;;;;5014772;28;20476;-63
2023/03/07 01:08:15;;;;;;;19.13;7.70;;;;;;;;;;5015707;28;20030;-63
2023/03/07 01:10:40;;;;;;;18.42;7.65;;;;;;;;;;5009187;28;20108;-62
2023/03/07 01:13:06;;;;;;;19.17;7.97;;;;;;;;;;5009858;28;20022;-62
2023/03/07 01:15:31;;;;;;;18.83;7.57;;;;;;;;;;5011458;28;20028;-62
2023/03/07 01:17:56;;;;;;;19.03;7.67;;;;;;;;;;5008332;28;20462;-63
2023/03/07 01:20:21;;;;;;;16.60;6.90;;;;;;;;;;5021420;28;20412;-62
2023/03/07 01:22:46;;;;;;;17.03;7.50;;;;;;;;;;5014275;28;20038;-62
2023/03/07 01:25:12;;;;;;;16.77;7.77;;;;;;;;;;5009517;28;20026;-62
2023/03/07 01:27:37;;;;;;;19.77;8.77;;;;;;;;;;5015173;28;20079;-63
2023/03/07 01:30:03;;;;;;;20.15;8.15;;;;;;;;;;5012042;28;20510;-63
2023/03/07 01:32:28;;;;;;;17.52;7.38;;;;;;;;;;5015305;28;20022;-63
2023/03/07 01:34:53;;;;;;;20.38;8.70;;;;;;;;;;5017546;28;20030;-62
2023/03/07 01:37:18;;;;;;;17.07;7.60;;;;;;;;;;5008369;28;20046;-62
2023/03/07 01:39:44;;;;;;;20.52;8.77;;;;;;;;;;5008834;28;20072;-62
2023/03/07 01:42:09;;;;;;;20.42;8.25;;;;;;;;;;5009517;28;20147;-64
2023/03/07 01:44:56;;;;;;;18.05;7.57;;;;;;;;;;5007486;28;20022;-64
2023/03/07 01:47:21;;;;;;;17.40;7.45;;;;;;;;;;5015653;28;20037;-63
2023/03/07 01:49:47;;;;;;;21.23;9.27;;;;;;;;;;5018382;28;20033;-64
2023/03/07 01:52:14;;;;;;;22.90;9.23;;;;;;;;;;5013158;28;20051;-64
2023/03/07 01:54:47;;;;;;;21.00;9.00;;;;;;;;;;5011081;28;20032;-64
2023/03/07 01:57:13;;;;;;;16.33;7.43;;;;;;;;;;5031434;28;20022;-63
2023/03/07 01:59:41;;;;;;;17.90;7.72;;;;;;;;;;5014401;28;20117;-63
2023/03/07 02:02:08;;;;;;;17.10;7.40;;;;;;;;;;5008051;28;20021;-64
2023/03/07 02:04:43;;;;;;;15.80;6.97;;;;;;;;;;5006483;28;20017;-64
2023/03/07 02:07:09;;;;;;;18.30;7.57;;;;;;;;;;5012329;28;20086;-64
2023/03/07 02:09:35;;;;;;;18.65;7.78;;;;;;;;;;5012043;28;20104;-64
2023/03/07 02:12:00;;;;;;;16.10;7.53;;;;;;;;;;5021452;28;20027;-63
2023/03/07 02:14:26;;;;;;;17.83;6.90;;;;;;;;;;5018973;28;20014;-64
2023/03/07 02:16:51;;;;;;;16.60;6.78;;;;;;;;;;5009771;28;20026;-64
2023/03/07 02:19:20;;;;;;;16.70;7.50;;;;;;;;;;5009302;28;20026;-63
2023/03/07 02:21:50;;;;;;;16.85;7.43;;;;;;;;;;5014966;28;20033;-63
2023/03/07 02:24:21;;;;;;;18.60;7.65;;;;;;;;;;5019080;28;20053;-63
2023/03/07 02:26:46;;;;;;;17.98;7.28;;;;;;;;;;5014488;28;20405;-62
2023/03/07 02:29:12;;;;;;;16.45;7.65;;;;;;;;;;5013474;28;20097;-63
2023/03/07 02:31:37;;;;;;;16.48;7.15;;;;;;;;;;5012888;28;20477;-63
2023/03/07 02:34:02;;;;;;;17.47;7.33;;;;;;;;;;5010527;28;20032;-63
2023/03/07 02:36:31;;;;;;;16.73;6.95;;;;;;;;;;5021166;28;20033;-63
2023/03/07 02:38:56;;;;;;;16.65;7.47;;;;;;;;;;5012184;28;20038;-63
2023/03/07 02:41:23;;;;;;;17.80;7.47;;;;;;;;;;5015731;28;20020;-63
2023/03/07 02:43:49;;;;;;;17.08;8.30;;;;;;;;;;5015466;28;20022;-63
2023/03/07 02:46:14;;;;;;;15.25;6.78;;;;;;;;;;5014867;28;20014;-64
2023/03/07 02:48:39;;;;;;;17.15;7.45;;;;;;;;;;5014816;28;20049;-63
2023/03/07 02:51:04;;;;;;;15.77;7.10;;;;;;;;;;5019202;28;20030;-62
2023/03/07 02:53:29;;;;;;;18.02;7.70;;;;;;;;;;5006204;28;20030;-62
2023/03/07 02:55:54;;;;;;;16.15;7.45;;;;;;;;;;5019050;28;20021;-63
2023/03/07 02:58:19;;;;;;;16.67;7.43;;;;;;;;;;5015559;28;20045;-62
2023/03/07 03:00:45;;;;;;;15.85;6.80;;;;;;;;;;5013483;28;20049;-62
2023/03/07 03:03:10;;;;;;;16.10;7.05;;;;;;;;;;5012308;28;20029;-62
2023/03/07 03:05:36;;;;;;;15.80;7.50;;;;;;;;;;5020069;28;20025;-62
2023/03/07 03:08:01;;;;;;;15.65;7.15;;;;;;;;;;5016804;28;20037;-62
2023/03/07 03:10:26;;;;;;;16.30;7.07;;;;;;;;;;5012010;28;20555;-63
2023/03/07 03:12:51;;;;;;;16.50;7.37;;;;;;;;;;5010777;28;20018;-62
2023/03/07 03:15:16;;;;;;;16.75;7.70;;;;;;;;;;5012475;28;20108;-63
2023/03/07 03:17:41;;;;;;;18.65;7.85;;;;;;;;;;5010457;28;20473;-62
2023/03/07 03:20:10;;;;;;;17.95;7.78;;;;;;;;;;5008681;28;20029;-62
2023/03/07 03:22:35;;;;;;;16.33;6.80;;;;;;;;;;5003017;28;20029;-63
2023/03/07 03:25:01;;;;;;;18.45;7.40;;;;;;;;;;5010363;28;20604;-63
2023/03/07 03:27:26;;;;;;;21.83;7.70;;;;;;;;;;5011951;28;20021;-62
2023/03/07 03:29:52;;;;;;;18.77;7.72;;;;;;;;;;5011440;28;20034;-63
2023/03/07 03:32:17;;;;;;;16.75;7.25;;;;;;;;;;5007901;28;20018;-63
2023/03/07 03:34:43;;;;;;;16.88;7.22;;;;;;;;;;5011056;28;20040;-62
2023/03/07 03:37:08;;;;;;;15.82;7.18;;;;;;;;;;5017974;28;20104;-63
2023/03/07 03:39:33;;;;;;;15.60;7.00;;;;;;;;;;5006691;28;20022;-62
2023/03/07 03:41:58;;;;;;;16.52;6.65;;;;;;;;;;5010619;28;20026;-62
2023/03/07 03:44:23;;;;;;;14.77;6.63;;;;;;;;;;5011431;28;20030;-62
2023/03/07 03:46:48;;;;;;;14.32;6.43;;;;;;;;;;5010858;28;20384;-63
2023/03/07 03:49:15;;;;;;;14.53;6.60;;;;;;;;;;5019153;28;20084;-63
2023/03/07 03:51:40;;;;;;;15.98;6.95;;;;;;;;;;5013969;28;20495;-63
2023/03/07 03:54:05;;;;;;;14.57;6.57;;;;;;;;;;5012673;28;20141;-62
2023/03/07 03:56:31;;;;;;;14.55;6.65;;;;;;;;;;5013065;28;20054;-62
2023/03/07 03:58:56;;;;;;;16.90;7.05;;;;;;;;;;5028749;28;20053;-62
2023/03/07 04:01:22;;;;;;;16.75;7.47;;;;;;;;;;5012223;28;20034;-62
2023/03/07 04:03:49;;;;;;;16.13;6.95;;;;;;;;;;5010899;28;20026;-63
2023/03/07 04:06:18;;;;;;;15.45;6.65;;;;;;;;;;5011073;28;20496;-62
2023/03/07 04:08:45;;;;;;;15.32;6.30;;;;;;;;;;5014270;28;20032;-62
2023/03/07 04:11:10;;;;;;;15.23;6.68;;;;;;;;;;5012112;28;20026;-62
2023/03/07 04:13:35;;;;;;;15.35;6.50;;;;;;;;;;5019170;28;20026;-62
2023/03/07 04:16:01;;;;;;;13.40;6.28;;;;;;;;;;5011852;28;20030;-61
2023/03/07 04:18:26;;;;;;;16.42;7.13;;;;;;;;;;5013368;28;20055;-61
2023/03/07 04:20:52;;;;;;;16.80;7.20;;;;;;;;;;5023093;28;20020;-62
2023/03/07 04:23:18;;;;;;;16.13;7.23;;;;;;;;;;5017273;28;20097;-62
2023/03/07 04:25:47;;;;;;;16.33;7.30;;;;;;;;;;5017781;28;20496;-61
2023/03/07 04:28:12;;;;;;;17.08;7.57;;;;;;;;;;5018016;28;20022;-62
2023/03/07 04:30:37;;;;;;;16.15;7.50;;;;;;;;;;5018951;28;20053;-62
2023/03/07 04:33:02;;;;;;;16.15;7.10;;;;;;;;;;5016129;28;20064;-62
2023/03/07 04:35:27;;;;;;;16.73;7.07;;;;;;;;;;5022619;28;20026;-62
2023/03/07 04:37:52;;;;;;;17.53;7.97;;;;;;;;;;5008289;28;20010;-63
2023/03/07 04:40:18;;;;;;;15.90;6.95;;;;;;;;;;5008972;28;20075;-63
2023/03/07 04:42:43;;;;;;;17.30;7.17;;;;;;;;;;5010679;28;20021;-62
2023/03/07 04:45:08;;;;;;;18.52;7.63;;;;;;;;;;5011522;28;20017;-63
2023/03/07 04:47:33;;;;;;;18.00;7.85;;;;;;;;;;5009146;28;20034;-61
2023/03/07 04:49:58;;;;;;;16.38;7.40;;;;;;;;;;5014812;28;20041;-62
2023/03/07 04:52:24;;;;;;;18.00;8.43;;;;;;;;;;5010975;28;20113;-63
2023/03/07 04:54:49;;;;;;;17.25;7.53;;;;;;;;;;5013341;28;20425;-63
2023/03/07 04:57:14;;;;;;;18.33;7.80;;;;;;;;;;5013021;28;20026;-62
2023/03/07 04:59:39;;;;;;;17.77;8.15;;;;;;;;;;5014714;28;20021;-62
2023/03/07 05:02:05;;;;;;;16.02;7.07;;;;;;;;;;5010574;28;20014;-62
2023/03/07 05:04:30;;;;;;;17.58;7.88;;;;;;;;;;5009771;28;20033;-62
2023/03/07 05:06:55;;;;;;;19.48;8.55;;;;;;;;;;5010374;28;20406;-61
2023/03/07 05:09:21;;;;;;;17.57;7.60;;;;;;;;;;5008129;28;20038;-62
2023/03/07 05:11:46;;;;;;;18.38;7.63;;;;;;;;;;5009352;28;20030;-62
2023/03/07 05:14:11;;;;;;;18.70;7.87;;;;;;;;;;5008581;28;20022;-61
2023/03/07 05:16:36;;;;;;;18.80;7.93;;;;;;;;;;5003867;28;20385;-63
2023/03/07 05:19:01;;;;;;;19.02;8.02;;;;;;;;;;5006940;28;20052;-63
2023/03/07 05:21:27;;;;;;;18.85;7.65;;;;;;;;;;5012619;28;20026;-62
2023/03/07 05:23:52;;;;;;;17.75;7.47;;;;;;;;;;5008413;28;20022;-63
2023/03/07 05:26:17;;;;;;;19.43;8.33;;;;;;;;;;5012123;28;20029;-62
2023/03/07 05:28:42;;;;;;;19.05;8.05;;;;;;;;;;5015854;28;20029;-62
2023/03/07 05:31:07;;;;;;;18.33;8.00;;;;;;;;;;5014030;28;20030;-63
2023/03/07 05:33:32;;;;;;;17.77;8.00;;;;;;;;;;5007182;28;20512;-62
2023/03/07 05:35:58;;;;;;;18.73;7.68;;;;;;;;;;5006483;28;20053;-62
2023/03/07 05:38:23;;;;;;;18.95;8.02;;;;;;;;;;5006801;28;20036;-61
2023/03/07 05:40:48;;;;;;;18.47;8.17;;;;;;;;;;5007741;28;20146;-63
2023/03/07 05:43:14;;;;;;;18.67;7.60;;;;;;;;;;5004172;28;20018;-62
2023/03/07 05:45:39;;;;;;;17.60;7.43;;;;;;;;;;5012035;28;20527;-62
2023/03/07 05:48:04;;;;;;;18.88;8.18;;;;;;;;;;5008394;28;20037;-63
2023/03/07 05:50:29;;;;;;;18.53;7.67;;;;;;;;;;5008644;28;20045;-62
2023/03/07 05:52:54;;;;;;;16.27;7.77;;;;;;;;;;4999586;28;20033;-62
2023/03/07 05:55:20;;;;;;;15.87;6.77;;;;;;;;;;5004851;28;20471;-63
2023/03/07 05:57:45;;;;;;;15.83;6.80;;;;;;;;;;5004975;28;20807;-62
2023/03/07 06:00:11;;;;;;;15.60;6.85;;;;;;;;;;5016230;28;20037;-63
2023/03/07 06:02:36;;;;;;;16.90;7.25;;;;;;;;;;5009909;28;21346;-62
2023/03/07 06:05:01;;;;;;;15.50;6.72;;;;;;;;;;5000662;28;20022;-64
2023/03/07 06:07:26;;;;;;;18.15;7.15;;;;;;;;;;5008693;28;20045;-63
2023/03/07 06:09:51;;;;;;;14.80;6.10;;;;;;;;;;5007517;28;20022;-62
2023/03/07 06:12:16;;;;;;;14.05;5.82;;;;;;;;;;5009526;28;20033;-62
2023/03/07 06:14:41;;;;;;;15.07;6.47;;;;;;;;;;5013116;28;20252;-63
2023/03/07 06:17:07;;;;;;;16.43;6.60;;;;;;;;;;5025402;28;20021;-63
2023/03/07 06:19:32;;;;;;;13.63;6.10;;;;;;;;;;5018250;28;20495;-63
2023/03/07 06:21:58;;;;;;;14.63;5.90;;;;;;;;;;5016587;28;20473;-62
2023/03/07 06:24:23;;;;;;;13.82;5.97;;;;;;;;;;5029152;28;20020;-62
2023/03/07 06:26:48;;;;;;;13.90;5.63;;;;;;;;;;5020910;28;20363;-63
2023/03/07 06:29:13;;;;;;;15.32;6.40;;;;;;;;;;5030257;28;20495;-64
2023/03/07 06:31:38;;;;;;;12.32;5.60;;;;;;;;;;5013211;28;20022;-63
2023/03/07 06:34:04;;;;;;;12.77;5.47;;;;;;;;;;5013054;28;20064;-63
2023/03/07 06:36:29;;;;;;;13.70;6.07;;;;;;;;;;5013898;28;20022;-63
2023/03/07 06:38:54;;;;;;;12.23;5.30;;;;;;;;;;5005126;28;20049;-63
2023/03/07 06:41:19;;;;;;;12.80;5.53;;;;;;;;;;5013299;28;20025;-62
2023/03/07 06:43:44;;;;;;;11.55;4.95;;;;;;;;;;5013605;28;20038;-63
2023/03/07 06:46:10;;;;;;;11.48;5.50;;;;;;;;;;5014574;28;20401;-64
2023/03/07 06:48:35;;;;;;;11.27;5.00;;;;;;;;;;5014519;28;20067;-64
2023/03/07 06:51:07;;;;;;;11.90;5.22;;;;;;;;;;5014225;28;20473;-63
2023/03/07 06:53:32;;;;;;;11.93;5.22;;;;;;;;;;5012324;28;20471;-63
2023/03/07 06:55:58;;;;;;;12.07;5.17;;;;;;;;;;5013432;28;20013;-64
2023/03/07 06:58:23;;;;;;;13.10;4.75;;;;;;;;;;5012198;28;20030;-63
2023/03/07 07:00:48;;;;;;;13.27;5.43;;;;;;;;;;5013061;28;20022;-63
2023/03/07 07:03:13;;;;;;;11.82;5.03;;;;;;;;;;5012250;28;20018;-63
2023/03/07 07:05:39;;;;;;;10.55;4.47;;;;;;;;;;5013671;28;20022;-63
2023/03/07 07:08:04;;;;;;;12.43;5.45;;;;;;;;;;5011704;28;20018;-63
2023/03/07 07:10:29;;;;;;;11.30;5.10;;;;;;;;;;5013501;28;20056;-63
2023/03/07 07:12:55;;;;;;;12.07;5.00;;;;;;;;;;5011912;28;20018;-62
2023/03/07 07:15:20;;;;;;;10.98;4.43;;;;;;;;;;5012587;28;20515;-63
2023/03/07 07:17:45;;;;;;;13.00;4.93;;;;;;;;;;5013532;28;20026;-63
2023/03/07 07:20:11;;;;;;;10.95;4.72;;;;;;;;;;5011766;28;20026;-63
2023/03/07 07:22:36;;;;;;;11.05;4.40;;;;;;;;;;5005391;28;20043;-63
2023/03/07 07:25:01;;;;;;;11.57;4.90;;;;;;;;;;5012501;28;20049;-63
2023/03/07 07:27:27;;;;;;;10.70;4.93;;;;;;;;;;5013173;28;20041;-63
2023/03/07 07:29:52;;;;;;;10.43;4.35;;;;;;;;;;5013112;28;20085;-63
2023/03/07 07:32:17;;;;;;;10.60;4.85;;;;;;;;;;5012223;28;20526;-63
2023/03/07 07:34:42;;;;;;;11.33;4.23;;;;;;;;;;5011740;28;20025;-63
2023/03/07 07:37:08;;;;;;;12.93;5.17;;;;;;;;;;5012481;28;20404;-64
2023/03/07 07:39:33;;;;;;;9.57;4.07;;;;;;;;;;5013124;28;20026;-62
2023/03/07 07:41:58;;;;;;;9.83;4.33;;;;;;;;;;5012241;28;20029;-63
2023/03/07 07:44:23;;;;;;;9.73;4.45;;;;;;;;;;5012650;28;20037;-63
2023/03/07 07:46:48;;;;;;;10.70;4.63;;;;;;;;;;5010656;28;20465;-63
2023/03/07 07:49:13;;;;;;;10.33;4.30;;;;;;;;;;5012113;28;20301;-62
2023/03/07 07:51:39;;;;;;;10.68;4.88;;;;;;;;;;5009756;28;20501;-63
2023/03/07 07:54:05;;;;;;;10.88;4.50;;;;;;;;;;5012004;28;20025;-62
2023/03/07 07:56:30;;;;;;;11.20;4.97;;;;;;;;;;5012854;28;20026;-63
2023/03/07 07:58:55;;;;;;;10.90;4.50;;;;;;;;;;5028545;28;20027;-63
2023/03/07 08:01:21;;;;;;;10.23;4.60;;;;;;;;;;5032951;28;20376;-63
2023/03/07 08:03:47;;;;;;;9.40;4.13;;;;;;;;;;5011568;28;20030;-63
2023/03/07 08:06:16;;;;;;;8.43;3.83;;;;;;;;;;5012300;28;20132;-63
2023/03/07 08:08:41;;;;;;;9.38;4.03;;;;;;;;;;5012473;28;20037;-62
2023/03/07 08:11:07;;;;;;;11.43;4.97;;;;;;;;;;5012275;28;20021;-64
2023/03/07 08:13:32;;;;;;;8.23;3.78;;;;;;;;;;5010344;28;20026;-63
2023/03/07 08:15:57;;;;;;;8.90;4.28;;;;;;;;;;5027296;28;20168;-63
2023/03/07 08:18:22;;;;;;;9.77;4.00;;;;;;;;;;5010931;28;20500;-63
2023/03/07 08:20:47;;;;;;;11.00;4.10;;;;;;;;;;5013976;28;20100;-62
2023/03/07 08:23:13;;;;;;;7.68;3.80;;;;;;;;;;5011125;28;20413;-63
2023/03/07 08:25:38;;;;;;;8.57;3.77;;;;;;;;;;5011411;28;20028;-63
2023/03/07 08:28:04;;;;;;;8.85;3.85;;;;;;;;;;5011799;28;20029;-63
2023/03/07 08:30:30;;;;;;;8.38;3.67;;;;;;;;;;5010967;28;20030;-63
2023/03/07 08:32:55;;;;;;;8.52;3.95;;;;;;;;;;5009470;28;20053;-63
2023/03/07 08:35:21;;;;;;;7.95;3.35;;;;;;;;;;5010323;28;20524;-63
2023/03/07 08:37:47;;;;;;;7.43;3.13;;;;;;;;;;5010979;28;20117;-63
2023/03/07 08:40:13;;;;;;;7.53;3.42;;;;;;;;;;5011931;28;20032;-63
2023/03/07 08:42:38;;;;;;;8.30;3.33;;;;;;;;;;5010861;28;20393;-62
2023/03/07 08:45:03;;;;;;;8.60;3.70;;;;;;;;;;5010983;28;20018;-65
2023/03/07 08:47:29;;;;;;;7.83;3.37;;;;;;;;;;5011587;28;20591;-62
2023/03/07 08:49:54;;;;;;;9.10;3.50;;;;;;;;;;5010472;28;20093;-62
2023/03/07 08:52:19;;;;;;;8.73;3.40;;;;;;;;;;5010477;28;20013;-62
2023/03/07 08:54:44;;;;;;;6.20;2.87;;;;;;;;;;5010056;28;20094;-62
2023/03/07 08:57:09;;;;;;;7.80;3.15;;;;;;;;;;5011445;28;20101;-62
2023/03/07 08:59:35;;;;;;;8.37;3.10;;;;;;;;;;5011159;28;20539;-62
2023/03/07 09:02:00;;;;;;;7.83;2.90;;;;;;;;;;5011146;28;20105;-62
2023/03/07 09:04:25;;;;;;;7.65;2.88;;;;;;;;;;5009589;28;20536;-63
2023/03/07 09:06:50;;;;;;;6.20;2.72;;;;;;;;;;5010943;28;20050;-63
2023/03/07 09:09:15;;;;;;;7.55;3.15;;;;;;;;;;5024475;28;20139;-63
2023/03/07 09:11:40;;;;;;;6.90;2.67;;;;;;;;;;5006536;28;20400;-63
2023/03/07 09:14:05;;;;;;;6.60;2.80;;;;;;;;;;5009228;28;20029;-62
2023/03/07 09:16:31;;;;;;;7.13;2.70;;;;;;;;;;5010632;28;20026;-63
2023/03/07 09:18:56;;;;;;;7.03;2.75;;;;;;;;;;5010473;28;20018;-63
2023/03/07 09:21:21;;;;;;;7.10;2.53;;;;;;;;;;5010723;28;20038;-63
2023/03/07 09:23:46;;;;;;;8.10;2.73;;;;;;;;;;5008814;28;20475;-63
2023/03/07 09:26:12;;;;;;;6.10;2.40;;;;;;;;;;5009846;28;20025;-63
2023/03/07 09:28:37;;;;;;;7.28;2.58;;;;;;;;;;5010741;28;20013;-63
2023/03/07 09:31:06;;;;;;;6.97;2.90;;;;;;;;;;5013623;28;20054;-63
2023/03/07 09:33:31;;;;;;;5.80;2.50;;;;;;;;;;5012904;28;21056;-63
2023/03/07 09:35:56;;;;;;;6.28;2.80;;;;;;;;;;5013708;28;20026;-63
2023/03/07 09:38:22;;;;;;;6.13;2.80;;;;;;;;;;5014953;28;20080;-64
2023/03/07 09:40:47;;;;;;;5.65;2.58;;;;;;;;;;5014923;28;20030;-64
2023/03/07 09:43:20;;;;;;;6.85;2.47;;;;;;;;;;5013725;28;20050;-62
2023/03/07 09:45:45;;;;;;;;;;;;;;;;;;5015148;28;20033;-63
2023/03/07 09:48:18;;;;;;;6.03;2.67;;;;;;;;;;5013872;28;19913;-63
2023/03/07 09:50:57;;;;;;;7.00;3.10;;;;;;;;;;5013560;28;20485;-63
2023/03/07 09:53:37;;;;;;;6.47;2.72;;;;;;;;;;5013934;28;20029;-63
2023/03/07 09:56:05;;;;;;;5.70;2.28;;;;;;;;;;5014532;28;20026;-63
2023/03/07 09:58:31;;;;;;;6.18;2.58;;;;;;;;;;5014395;28;20021;-62
2023/03/07 10:01:00;;;;;;;6.70;2.88;;;;;;;;;;5012986;28;20076;-64
2023/03/07 10:03:28;;;;;;;6.45;2.40;;;;;;;;;;5013187;28;20100;-62
2023/03/07 10:05:55;;;;;;;7.18;3.22;;;;;;;;;;5014281;28;20018;-63
2023/03/07 10:08:22;;;;;;;7.60;2.88;;;;;;;;;;5016819;28;20029;-64
2023/03/07 10:10:47;;;;;;;;;;;;;;;;;;5017610;28;20030;-63
2023/03/07 10:13:31;;;;;;;6.25;2.75;;;;;;;;;;5013790;28;19905;-61
2023/03/07 10:16:22;;;;;;;7.60;2.65;;;;;;;;;;5013428;28;20026;-61
2023/03/07 10:18:50;;;;;;;11.07;3.50;;;;;;;;;;5011861;28;20034;-62
2023/03/07 10:21:18;;;;;;;13.18;3.00;;;;;;;;;;5013494;28;20526;-61
2023/03/07 10:23:59;;;;;;;9.02;3.38;;;;;;;;;;5013530;28;20362;-62
2023/03/07 10:26:31;;;;;;;7.47;2.97;;;;;;;;;;5014160;28;20109;-62
2023/03/07 10:28:58;;;;;;;7.72;3.10;;;;;;;;;;5014017;28;20424;-63
2023/03/07 10:31:23;;;;;;;8.50;3.13;;;;;;;;;;5013206;28;20073;-63
2023/03/07 10:33:49;;;;;;;7.67;3.17;;;;;;;;;;5013593;28;20044;-64
2023/03/07 10:36:19;;;;;;;6.55;3.13;;;;;;;;;;5013595;28;20053;-63
2023/03/07 10:38:51;;;;;;;7.35;3.20;;;;;;;;;;5013570;28;20014;-63
2023/03/07 10:41:19;;;;;;;7.32;3.22;;;;;;;;;;5012885;28;20084;-63
2023/03/07 10:43:45;;;;;;;7.47;3.58;;;;;;;;;;5012136;28;20022;-63
2023/03/07 10:46:14;;;;;;;6.72;2.90;;;;;;;;;;5013474;28;20079;-64
2023/03/07 10:48:42;;;;;;;7.75;3.33;;;;;;;;;;5013278;28;20481;-63
2023/03/07 10:51:26;;;;;;;7.40;3.50;;;;;;;;;;5012825;28;20030;-64
2023/03/07 10:53:52;;;;;;;6.13;3.03;;;;;;;;;;5012993;28;20037;-63
2023/03/07 10:56:17;;;;;;;8.02;3.85;;;;;;;;;;5013289;28;20132;-63
2023/03/07 10:58:59;;;;;;;7.23;3.57;;;;;;;;;;5007701;28;20038;-63
2023/03/07 11:01:26;;;;;;;7.28;3.10;;;;;;;;;;5012400;28;20053;-63
2023/03/07 11:03:57;;;;;;;7.93;3.60;;;;;;;;;;5012773;28;20665;-63
2023/03/07 11:06:27;;;;;;;8.05;3.97;;;;;;;;;;5013146;28;20104;-63
2023/03/07 11:08:52;;;;;;;6.93;3.25;;;;;;;;;;5013189;28;20018;-64
2023/03/07 11:11:22;;;;;;;10.10;3.17;;;;;;;;;;5012106;28;20166;-63
2023/03/07 11:14:03;;;;;;;7.40;3.40;;;;;;;;;;5012320;28;20018;-63
2023/03/07 11:16:28;;;;;;;6.82;3.17;;;;;;;;;;4993624;28;20386;-63
2023/03/07 11:18:54;;;;;;;7.40;3.30;;;;;;;;;;4993227;28;20019;-64
2023/03/07 11:21:30;;;;;;;6.68;3.22;;;;;;;;;;5010104;28;20040;-62
2023/03/07 11:24:03;;;;;;;7.93;3.45;;;;;;;;;;5010105;28;20029;-62
2023/03/07 11:26:29;;;;;;;7.40;3.40;;;;;;;;;;5009407;28;20040;-63
2023/03/07 11:29:05;;;;;;;7.05;3.30;;;;;;;;;;5012453;28;20022;-63
2023/03/07 11:31:34;;;;;;;7.45;3.33;;;;;;;;;;5010803;28;20533;-63
2023/03/07 11:34:05;;;;;;;6.93;3.22;;;;;;;;;;5011008;28;20036;-64
2023/03/07 11:36:31;;;;;;;7.65;3.50;;;;;;;;;;5005155;28;20481;-64
2023/03/07 11:39:12;;;;;;;7.45;3.45;;;;;;;;;;5009573;28;20109;-64
2023/03/07 11:41:52;;;;;;;8.43;3.25;;;;;;;;;;5011337;28;20026;-63
2023/03/07 11:44:28;;;;;;;7.82;3.38;;;;;;;;;;5012021;28;20030;-62
2023/03/07 11:46:54;;;;;;;6.78;3.17;;;;;;;;;;5012632;28;20026;-63
2023/03/07 11:49:33;;;;;;;7.80;3.70;;;;;;;;;;5011523;28;20044;-63
2023/03/07 11:52:18;;;;;;;7.10;3.40;;;;;;;;;;5011581;28;20568;-63
2023/03/07 11:55:02;;;;;;;7.65;3.33;;;;;;;;;;5011694;28;20388;-63
2023/03/07 11:57:37;;;;;;;7.72;3.65;;;;;;;;;;5013256;28;20018;-63
2023/03/07 12:00:19;;;;;;;6.45;3.13;;;;;;;;;;5011949;28;20032;-64
2023/03/07 12:02:59;;;;;;;6.72;2.95;;;;;;;;;;5012876;28;20061;-63
2023/03/07 12:05:27;;;;;;;8.73;3.35;;;;;;;;;;5011820;28;20025;-63
2023/03/07 12:07:52;;;;;;;7.60;3.05;;;;;;;;;;5011165;28;20030;-64
2023/03/07 12:10:37;;;;;;;9.52;3.40;;;;;;;;;;5011423;28;20041;-63
2023/03/07 12:13:21;;;;;;;7.15;3.30;;;;;;;;;;5012160;28;20018;-64
2023/03/07 12:15:50;;;;;;;7.45;3.30;;;;;;;;;;5012258;28;20473;-64
2023/03/07 12:18:33;;;;;;;8.77;3.45;;;;;;;;;;5011213;28;20095;-63
2023/03/07 12:21:05;;;;;;;7.88;3.38;;;;;;;;;;5011981;28;20041;-63
2023/03/07 12:23:37;;;;;;;7.22;3.13;;;;;;;;;;5011731;28;20966;-63
2023/03/07 12:26:08;;;;;;;7.68;3.15;;;;;;;;;;5010917;28;20037;-64
2023/03/07 12:28:33;;;;;;;7.32;3.28;;;;;;;;;;5007616;28;20490;-63
2023/03/07 12:31:18;;;;;;;6.77;2.93;;;;;;;;;;5003769;28;20092;-63
2023/03/07 12:34:04;;;;;;;7.00;3.28;;;;;;;;;;5008723;28;20373;-63
2023/03/07 12:36:41;;;;;;;8.45;3.60;;;;;;;;;;5010758;28;20033;-63
2023/03/07 12:39:15;;;;;;;7.15;3.28;;;;;;;;;;5010760;28;20473;-63
2023/03/07 12:41:47;;;;;;;7.30;3.30;;;;;;;;;;5011556;28;20021;-64
2023/03/07 12:44:16;;;;;;;7.60;3.25;;;;;;;;;;5010083;28;20389;-63
2023/03/07 12:46:59;;;;;;;7.65;3.30;;;;;;;;;;5011480;28;20021;-63
2023/03/07 12:49:36;;;;;;;8.98;3.25;;;;;;;;;;5011479;28;20461;-62
2023/03/07 12:52:05;;;;;;;6.78;3.05;;;;;;;;;;5011432;28;20041;-63
2023/03/07 12:54:35;;;;;;;6.85;3.28;;;;;;;;;;5009540;28;20029;-64
2023/03/07 12:57:17;;;;;;;7.82;3.30;;;;;;;;;;5011372;28;20101;-63
2023/03/07 12:59:43;;;;;;;8.02;3.50;;;;;;;;;;5011227;28;20056;-64
2023/03/07 13:02:28;;;;;;;9.52;3.63;;;;;;;;;;5011092;28;20030;-63
2023/03/07 13:04:53;;;;;;;7.65;3.50;;;;;;;;;;5006812;28;20025;-63
2023/03/07 13:07:32;;;;;;;8.63;3.33;;;;;;;;;;5009617;28;20028;-63
2023/03/07 13:09:58;;;;;;;7.43;3.33;;;;;;;;;;5010716;28;20481;-63
2023/03/07 13:12:28;;;;;;;7.68;3.30;;;;;;;;;;5010104;28;20465;-63
2023/03/07 13:14:53;;;;;;;8.13;3.50;;;;;;;;;;5022602;28;20021;-64
2023/03/07 13:17:30;;;;;;;8.27;3.40;;;;;;;;;;5010948;28;20101;-62
2023/03/07 13:19:59;;;;;;;7.50;3.60;;;;;;;;;;5010940;28;20037;-63
2023/03/07 13:22:24;;;;;;;7.70;3.78;;;;;;;;;;5009746;28;20080;-62
2023/03/07 13:24:53;;;;;;;7.07;3.15;;;;;;;;;;5010270;28;20064;-62
2023/03/07 13:27:20;;;;;;;7.95;3.40;;;;;;;;;;5010620;28;20022;-63
2023/03/07 13:30:04;;;;;;;7.93;3.45;;;;;;;;;;5009435;28;20026;-63
2023/03/07 13:32:47;;;;;;;7.95;3.45;;;;;;;;;;5009528;28;20037;-63
2023/03/07 13:35:32;;;;;;;8.35;3.28;;;;;;;;;;5010255;28;20037;-63
2023/03/07 13:37:58;;;;;;;7.13;3.40;;;;;;;;;;5010706;28;20545;-63
2023/03/07 13:40:46;;;;;;;7.57;3.67;;;;;;;;;;5010925;28;20025;-64
2023/03/07 13:43:17;;;;;;;8.27;3.20;;;;;;;;;;5003908;28;20033;-63
2023/03/07 13:45:45;;;;;;;6.53;3.03;;;;;;;;;;5010535;28;20028;-62
2023/03/07 13:48:11;;;;;;;8.45;3.63;;;;;;;;;;5009469;28;20393;-64
2023/03/07 13:50:38;;;;;;;10.07;3.85;;;;;;;;;;5010706;28;20026;-63
2023/03/07 13:53:23;;;;;;;7.65;3.17;;;;;;;;;;5009856;28;20022;-62
2023/03/07 13:55:53;;;;;;;7.03;3.13;;;;;;;;;;5009690;28;20034;-63
2023/03/07 13:58:31;;;;;;;7.20;3.42;;;;;;;;;;5010414;28;20458;-62
2023/03/07 14:00:57;;;;;;;;;;;;;;;;;;5001880;28;20018;-64
2023/03/07 14:03:36;;;;;;;9.17;3.10;;;;;;;;;;5010547;28;19931;-63
2023/03/07 14:06:09;;;;;;;6.88;3.03;;;;;;;;;;5007006;28;20045;-63
2023/03/07 14:08:34;;;;;;;7.78;3.20;;;;;;;;;;5008387;28;20380;-64
2023/03/07 14:11:00;;;;;;;7.13;3.13;;;;;;;;;;5004791;28;20381;-63
2023/03/07 14:13:28;;;;;;;8.32;3.47;;;;;;;;;;5007667;28;20032;-63
2023/03/07 14:15:59;;;;;;;7.32;3.20;;;;;;;;;;5007687;28;20080;-63
2023/03/07 14:18:30;;;;;;;7.95;3.65;;;;;;;;;;5009985;28;20025;-62
2023/03/07 14:20:59;;;;;;;8.18;3.30;;;;;;;;;;5009424;28;20029;-63
2023/03/07 14:23:45;;;;;;;6.35;3.05;;;;;;;;;;5009765;28;20571;-62
2023/03/07 14:26:17;;;;;;;7.80;3.40;;;;;;;;;;5010503;28;20034;-64
2023/03/07 14:28:49;;;;;;;7.70;3.25;;;;;;;;;;5010521;28;20022;-63
2023/03/07 14:31:29;;;;;;;7.40;3.00;;;;;;;;;;5009575;28;20044;-63
2023/03/07 14:33:54;;;;;;;7.25;3.20;;;;;;;;;;5008920;28;20025;-63
2023/03/07 14:36:30;;;;;;;8.77;3.20;;;;;;;;;;5011208;28;20384;-63
2023/03/07 14:38:56;;;;;;;7.93;3.30;;;;;;;;;;5011415;28;20034;-64